createdAt,value
2023-04-19T00:04:48.615Z,1.6
2023-04-19T00:11:08.516Z,1.6
2023-04-19T00:17:31.652Z,1
2023-04-19T00:23:51.571Z,1
2023-04-19T00:30:14.695Z,2.9
2023-04-19T00:36:34.503Z,2.9
2023-04-19T00:42:57.602Z,1.6
2023-04-19T00:49:17.511Z,1.6
2023-04-19T00:55:40.626Z,3.2
2023-04-19T01:02:00.642Z,3.2
2023-04-19T01:08:23.626Z,1
2023-04-19T01:14:43.630Z,1
2023-04-19T01:21:06.580Z,3
2023-04-19T01:27:26.521Z,3
2023-04-19T01:33:49.623Z,2.1
2023-04-19T01:40:09.499Z,2.1
2023-04-19T01:46:32.648Z,4.2
2023-04-19T01:52:52.630Z,4.2
2023-04-19T01:59:15.581Z,3.3
2023-04-19T02:05:35.581Z,3.3
2023-04-19T02:11:58.757Z,2.7
2023-04-19T02:18:18.532Z,2.7
2023-04-19T02:24:41.617Z,3.2
2023-04-19T02:31:01.672Z,3.2
2023-04-19T02:37:24.529Z,3
2023-04-19T02:43:44.578Z,3
2023-04-19T02:50:07.633Z,3.3
2023-04-19T02:56:27.524Z,3.3
2023-04-19T03:02:50.617Z,3.7
2023-04-19T03:09:10.684Z,3.7
2023-04-19T03:15:33.536Z,4
2023-04-19T03:38:57.179Z,4.7
2023-04-19T03:45:17.474Z,4.7
2023-04-19T03:51:40.560Z,7.2
2023-04-19T03:58:00.536Z,7.2
2023-04-19T04:04:23.639Z,7.2
2023-04-19T04:10:43.524Z,7.2
2023-04-19T04:17:06.648Z,4.5
2023-04-19T04:23:26.520Z,4.5
2023-04-19T04:29:49.498Z,6.5
2023-04-19T04:36:09.933Z,6.5
2023-04-19T04:42:32.513Z,3.1
2023-04-19T04:48:52.534Z,3.1
2023-04-19T04:55:15.567Z,3.1
2023-04-19T05:01:35.648Z,3.1
2023-04-19T05:07:58.600Z,4.8
2023-04-19T05:14:18.620Z,4.8
2023-04-19T05:20:41.520Z,5.5
2023-04-19T05:27:01.674Z,5.5
2023-04-19T05:33:24.572Z,5.4
2023-04-19T05:39:44.861Z,5.4
2023-04-19T05:46:07.583Z,5.1
2023-04-19T05:52:27.662Z,5.1
2023-04-19T05:58:50.578Z,3.4
2023-04-19T06:05:11.317Z,3.4
2023-04-19T06:11:39.259Z,3.1
2023-04-19T06:17:53.606Z,3.1
2023-04-19T06:24:16.697Z,4.8
2023-04-19T06:30:36.803Z,4.8
2023-04-19T06:36:59.524Z,3.8
2023-04-19T06:43:19.533Z,3.8
2023-04-19T06:49:42.677Z,6.1
2023-04-19T06:56:02.552Z,6.1
2023-04-19T07:02:25.710Z,3.5
2023-04-19T07:08:50.028Z,3.5
2023-04-19T07:15:08.495Z,3.9
2023-04-19T07:21:28.600Z,3.9
2023-04-19T07:27:52.376Z,4.9
2023-04-19T07:34:11.558Z,4.9
2023-04-19T07:40:34.516Z,5.4
2023-04-19T07:46:54.609Z,5.4
2023-04-19T07:53:17.537Z,4
2023-04-19T07:59:37.546Z,4
2023-04-19T08:06:00.961Z,2.2
2023-04-19T08:18:43.544Z,3.5
2023-04-19T08:25:03.964Z,3.5
2023-04-19T08:31:26.712Z,4.9
2023-04-19T08:37:46.541Z,4.9
2023-04-19T08:44:09.596Z,2
2023-04-19T08:50:34.303Z,2
2023-04-19T09:14:10.629Z,2.2
2023-04-19T09:20:33.472Z,3.4
2023-04-19T09:26:53.559Z,3.4
2023-04-19T09:33:16.865Z,3.4
2023-04-19T09:39:36.547Z,3.4
2023-04-19T09:45:59.577Z,2.7
2023-04-19T09:52:19.552Z,2.7
2023-04-19T09:58:50.917Z,2.6
2023-04-19T10:05:19.517Z,2.6
2023-04-19T10:11:25.696Z,1.8
2023-04-19T10:17:45.628Z,1.8
2023-04-19T10:24:08.487Z,2.2
2023-04-19T10:30:28.527Z,2.2
2023-04-19T10:36:51.577Z,2.1
2023-04-19T10:43:11.532Z,2.1
2023-04-19T10:49:34.569Z,1.4
2023-04-19T10:55:54.492Z,1.4
2023-04-19T11:02:17.610Z,3.2
2023-04-19T11:08:37.563Z,3.2
2023-04-19T11:15:00.521Z,1.4
2023-04-19T11:21:20.589Z,1.4
2023-04-19T11:27:43.522Z,2.1
2023-04-19T11:34:03.602Z,2.1
2023-04-19T11:40:26.553Z,1.6
2023-04-19T11:46:46.589Z,1.6
2023-04-19T11:53:09.550Z,1.5
2023-04-19T11:59:29.513Z,1.5
2023-04-19T12:05:52.786Z,0.9
2023-04-19T12:12:12.498Z,0.9
2023-04-19T12:18:35.505Z,1.6
2023-04-19T12:24:55.555Z,1.6
2023-04-19T12:31:18.493Z,1.2
2023-04-19T12:37:38.543Z,1.2
2023-04-19T12:44:01.582Z,1
2023-04-19T12:50:21.555Z,1
2023-04-19T12:56:44.518Z,1.7
2023-04-19T13:03:04.626Z,1.7
2023-04-19T13:09:27.559Z,1.2
2023-04-19T13:15:47.547Z,1.2
2023-04-19T13:22:10.561Z,1.2
2023-04-19T13:28:30.531Z,1.2
2023-04-19T13:34:53.506Z,0.1
2023-04-19T13:41:13.578Z,0.1
2023-04-19T13:47:36.526Z,1.4
2023-04-19T13:53:56.515Z,1.4
2023-04-19T14:00:19.579Z,1.1
2023-04-19T14:06:39.541Z,1.1
2023-04-19T14:13:02.543Z,0.6
2023-04-19T14:19:22.566Z,0.6
2023-04-19T14:25:45.514Z,1.7
2023-04-19T14:32:21.274Z,1.7
2023-04-19T14:38:28.524Z,1.6
2023-04-19T14:55:11.237Z,0.9
2023-04-19T15:01:34.086Z,1.9
2023-04-19T15:07:53.708Z,1.9
2023-04-19T15:14:16.604Z,1.9
2023-04-19T15:20:36.481Z,1.9
2023-04-19T15:26:59.605Z,1.7
2023-04-19T15:33:19.721Z,1.7
2023-04-19T15:39:42.922Z,2.5
2023-04-19T15:46:02.563Z,2.5
2023-04-19T15:52:25.774Z,2.4
2023-04-19T15:58:45.522Z,2.4
2023-04-19T16:05:08.478Z,2
2023-04-19T16:11:28.643Z,2
2023-04-19T16:17:51.532Z,1.8
2023-04-19T16:24:11.479Z,1.8
2023-04-19T16:30:34.554Z,3.4
2023-04-19T16:36:54.494Z,3.4
2023-04-19T16:43:17.497Z,0.9
2023-04-19T16:49:37.542Z,0.9
2023-04-19T16:56:00.545Z,1.9
2023-04-19T17:02:20.786Z,1.9
2023-04-19T17:08:43.500Z,1.4
2023-04-19T17:15:03.536Z,1.4
2023-04-19T17:21:26.530Z,0.9
2023-04-19T17:27:46.529Z,0.9
2023-04-19T17:34:09.614Z,1.9
2023-04-19T17:40:29.795Z,1.9
2023-04-19T17:46:52.722Z,0.6
2023-04-19T17:53:12.512Z,0.6
2023-04-19T17:59:35.533Z,1.7
2023-04-19T18:05:55.593Z,1.7
2023-04-19T18:12:18.572Z,0.9
2023-04-19T18:18:38.557Z,0.9
2023-04-19T18:25:01.636Z,1.4
2023-04-19T18:31:21.614Z,1.4
2023-04-19T18:37:44.578Z,0.5
2023-04-19T18:44:19.542Z,0.5
2023-04-19T18:50:27.597Z,1.4
2023-04-19T19:03:24.566Z,1.4
2023-04-19T19:09:30.515Z,1.4
2023-04-19T19:15:53.503Z,1.4
2023-04-19T19:22:25.526Z,1.4
2023-04-19T19:28:36.591Z,1.2
2023-04-19T19:35:01.650Z,1.2
2023-04-19T19:41:36.955Z,1.5
2023-04-19T19:47:45.128Z,1.5
2023-04-19T19:54:02.577Z,1.5
2023-04-19T20:00:42.480Z,1.5
2023-04-19T20:23:10.582Z,2
2023-04-19T20:29:30.442Z,2
2023-04-19T20:35:53.544Z,2.8
2023-04-19T20:42:13.532Z,2.8
2023-04-19T20:48:36.522Z,1.6
2023-04-19T20:54:56.533Z,1.6
2023-04-19T21:01:19.952Z,2.3
2023-04-19T21:07:39.540Z,2.3
2023-04-19T21:14:02.498Z,2
2023-04-19T21:20:22.479Z,2
2023-04-19T21:26:45.587Z,0.8
2023-04-19T21:33:05.569Z,0.8
2023-04-19T21:39:28.560Z,1.5
2023-04-19T21:45:48.598Z,1.5
2023-04-19T21:52:11.568Z,0.8
2023-04-19T21:58:31.577Z,0.8
2023-04-19T22:22:49.611Z,3.2
2023-04-19T22:29:09.526Z,3.2
2023-04-19T22:35:32.506Z,3.2
2023-04-19T22:41:52.620Z,3.2
2023-04-19T22:48:15.469Z,1.7
2023-04-19T22:54:35.677Z,1.7
2023-04-19T23:00:58.675Z,1
2023-04-19T23:07:18.629Z,1
2023-04-19T23:13:41.550Z,2.8
2023-04-19T23:20:01.646Z,2.8
2023-04-19T23:26:24.622Z,1.6
2023-04-19T23:32:44.653Z,1.6
2023-04-19T23:39:07.558Z,2
2023-04-19T23:45:27.635Z,2
2023-04-19T23:51:50.601Z,1.6
2023-04-19T23:58:10.646Z,1.6
